createdAt,value
2023-04-23T00:00:01.562Z,55
2023-04-23T00:01:02.326Z,55
2023-04-23T00:02:02.116Z,56
2023-04-23T00:03:02.337Z,55
2023-04-23T00:04:02.538Z,56
2023-04-23T00:05:01.949Z,56
2023-04-23T00:06:01.939Z,55
2023-04-23T00:07:01.792Z,56
2023-04-23T00:08:01.854Z,56
2023-04-23T00:09:01.728Z,56
2023-04-23T00:10:01.779Z,56
2023-04-23T00:11:01.745Z,56
2023-04-23T00:12:01.780Z,55
2023-04-23T00:13:01.669Z,56
2023-04-23T00:14:01.705Z,56
2023-04-23T00:15:01.545Z,56
2023-04-23T00:16:02.229Z,56
2023-04-23T00:17:02.337Z,56
2023-04-23T00:18:02.175Z,56
2023-04-23T00:19:02.282Z,55
2023-04-23T00:20:02.306Z,55
2023-04-23T00:21:02.105Z,55
2023-04-23T00:22:02.165Z,55
2023-04-23T00:23:02.090Z,55
2023-04-23T00:24:02.042Z,55
2023-04-23T00:25:02.070Z,55
2023-04-23T00:26:01.933Z,56
2023-04-23T00:27:01.894Z,56
2023-04-23T00:28:01.870Z,56
2023-04-23T00:29:01.734Z,56
2023-04-23T00:30:01.749Z,56
2023-04-23T00:32:01.693Z,56
2023-04-23T00:33:01.576Z,55
2023-04-23T00:34:02.497Z,56
2023-04-23T00:35:02.420Z,57
2023-04-23T00:36:02.538Z,57
2023-04-23T00:37:02.396Z,57
2023-04-23T00:38:02.469Z,59
2023-04-23T00:39:02.367Z,58
2023-04-23T00:40:02.437Z,58
2023-04-23T00:41:02.336Z,58
2023-04-23T00:42:02.439Z,58
2023-04-23T00:43:02.337Z,58
2023-04-23T00:44:02.376Z,58
2023-04-23T00:45:02.367Z,58
2023-04-23T00:46:02.301Z,57
2023-04-23T00:47:02.243Z,57
2023-04-23T00:48:02.304Z,57
2023-04-23T00:49:02.189Z,58
2023-04-23T00:50:02.283Z,58
2023-04-23T00:51:02.229Z,58
2023-04-23T00:52:02.063Z,58
2023-04-23T00:53:02.133Z,58
2023-04-23T00:54:02.018Z,60
2023-04-23T00:55:01.988Z,59
2023-04-23T00:56:02.040Z,59
2023-04-23T00:57:01.881Z,59
2023-04-23T00:58:01.964Z,59
2023-04-23T00:59:01.805Z,59
2023-04-23T01:00:02.560Z,59
2023-04-23T01:02:02.374Z,61
2023-04-23T01:03:02.353Z,60
2023-04-23T01:04:02.652Z,60
2023-04-23T01:05:01.767Z,59
2023-04-23T01:06:01.793Z,59
2023-04-23T01:07:01.623Z,59
2023-04-23T01:08:01.669Z,59
2023-04-23T01:09:01.521Z,59
2023-04-23T01:10:01.570Z,59
2023-04-23T01:11:02.509Z,59
2023-04-23T01:12:02.437Z,59
2023-04-23T01:13:02.537Z,59
2023-04-23T01:14:02.455Z,59
2023-04-23T01:15:02.522Z,59
2023-04-23T01:17:02.255Z,60
2023-04-23T01:18:02.245Z,60
2023-04-23T01:19:02.154Z,60
2023-04-23T01:20:02.158Z,60
2023-04-23T01:21:02.002Z,60
2023-04-23T01:22:01.968Z,60
2023-04-23T01:23:01.999Z,60
2023-04-23T01:24:01.891Z,60
2023-04-23T01:25:01.868Z,60
2023-04-23T01:26:01.689Z,60
2023-04-23T01:27:01.745Z,60
2023-04-23T01:28:01.577Z,60
2023-04-23T01:29:01.584Z,61
2023-04-23T01:30:01.459Z,61
2023-04-23T01:31:02.284Z,61
2023-04-23T01:32:02.266Z,61
2023-04-23T01:33:02.321Z,61
2023-04-23T01:34:02.215Z,61
2023-04-23T01:35:02.225Z,61
2023-04-23T01:36:02.070Z,61
2023-04-23T01:37:01.996Z,61
2023-04-23T01:38:02.052Z,61
2023-04-23T01:39:01.916Z,62
2023-04-23T01:40:01.958Z,62
2023-04-23T01:41:01.820Z,62
2023-04-23T01:42:01.853Z,61
2023-04-23T01:43:01.787Z,61
2023-04-23T01:44:01.830Z,62
2023-04-23T01:45:01.726Z,62
2023-04-23T01:47:01.566Z,64
2023-04-23T01:48:02.580Z,63
2023-04-23T01:49:02.411Z,65
2023-04-23T01:50:01.524Z,64
2023-04-23T01:51:02.495Z,64
2023-04-23T01:52:02.378Z,66
2023-04-23T01:53:02.482Z,65
2023-04-23T01:54:02.401Z,66
2023-04-23T01:55:02.549Z,67
2023-04-23T01:56:02.400Z,66
2023-04-23T01:57:02.517Z,66
2023-04-23T01:58:02.445Z,67
2023-04-23T01:59:02.504Z,66
2023-04-23T02:00:02.236Z,66
2023-04-23T02:01:02.301Z,65
2023-04-23T02:02:02.548Z,65
2023-04-23T02:03:02.707Z,66
2023-04-23T02:04:01.814Z,66
2023-04-23T02:05:01.534Z,65
2023-04-23T02:06:01.604Z,65
2023-04-23T02:07:01.499Z,65
2023-04-23T02:08:02.509Z,65
2023-04-23T02:09:02.370Z,65
2023-04-23T02:10:02.571Z,65
2023-04-23T02:11:02.446Z,65
2023-04-23T02:12:02.399Z,65
2023-04-23T02:13:02.441Z,67
2023-04-23T02:14:02.432Z,68
2023-04-23T02:15:02.295Z,68
2023-04-23T02:17:02.090Z,70
2023-04-23T02:18:01.954Z,71
2023-04-23T02:19:01.909Z,71
2023-04-23T02:20:01.912Z,72
2023-04-23T02:21:01.816Z,72
2023-04-23T02:22:01.830Z,71
2023-04-23T02:23:01.744Z,71
2023-04-23T02:24:01.764Z,70
2023-04-23T02:25:01.618Z,70
2023-04-23T02:26:01.595Z,70
2023-04-23T02:27:01.509Z,72
2023-04-23T02:28:02.501Z,73
2023-04-23T02:29:02.403Z,75
2023-04-23T02:30:02.467Z,76
2023-04-23T02:32:02.187Z,77
2023-04-23T02:33:02.302Z,77
2023-04-23T02:34:02.052Z,77
2023-04-23T02:35:02.108Z,77
2023-04-23T02:36:01.945Z,77
2023-04-23T02:37:02.297Z,79
2023-04-23T02:38:02.219Z,81
2023-04-23T02:39:02.053Z,81
2023-04-23T02:40:02.084Z,83
2023-04-23T02:41:01.980Z,84
2023-04-23T02:42:01.925Z,84
2023-04-23T02:43:02.032Z,85
2023-04-23T02:44:01.865Z,88
2023-04-23T02:45:01.891Z,89
2023-04-23T02:46:02.443Z,89
2023-04-23T02:47:02.532Z,91
2023-04-23T02:48:02.485Z,89
2023-04-23T02:49:02.251Z,90
2023-04-23T02:50:02.357Z,90
2023-04-23T02:51:02.204Z,91
2023-04-23T02:52:02.279Z,91
2023-04-23T02:53:02.252Z,95
2023-04-23T02:54:02.110Z,98
2023-04-23T02:55:02.165Z,98
2023-04-23T02:56:02.066Z,98
2023-04-23T02:57:01.941Z,100
2023-04-23T02:58:01.972Z,100
2023-04-23T02:59:01.854Z,100
2023-04-23T03:00:01.937Z,100
2023-04-23T03:01:01.817Z,100
2023-04-23T03:02:01.780Z,100
2023-04-23T03:03:02.065Z,100
2023-04-23T03:04:02.356Z,100
2023-04-23T03:05:02.528Z,100
2023-04-23T03:06:02.425Z,100
2023-04-23T03:07:02.489Z,100
2023-04-23T03:08:02.367Z,100
2023-04-23T03:09:02.484Z,100
2023-04-23T03:10:02.324Z,100
2023-04-23T03:11:02.319Z,100
2023-04-23T03:12:02.252Z,100
2023-04-23T03:13:02.388Z,100
2023-04-23T03:14:02.212Z,100
2023-04-23T03:15:02.292Z,100
2023-04-23T03:17:02.188Z,100
2023-04-23T03:18:02.076Z,100
2023-04-23T03:19:01.892Z,100
2023-04-23T03:20:01.885Z,100
2023-04-23T03:21:01.761Z,100
2023-04-23T03:22:01.820Z,100
2023-04-23T03:23:01.670Z,100
2023-04-23T03:24:01.741Z,100
2023-04-23T03:25:01.636Z,100
2023-04-23T03:26:01.631Z,100
2023-04-23T03:27:01.467Z,100
2023-04-23T03:28:01.528Z,100
2023-04-23T03:29:02.420Z,100
2023-04-23T03:30:02.406Z,100
2023-04-23T03:31:02.379Z,100
2023-04-23T03:32:02.200Z,100
2023-04-23T03:33:02.347Z,100
2023-04-23T03:34:02.102Z,100
2023-04-23T03:35:02.182Z,100
2023-04-23T03:36:02.076Z,100
2023-04-23T03:37:01.984Z,100
2023-04-23T03:38:01.982Z,100
2023-04-23T03:39:01.889Z,100
2023-04-23T03:40:01.958Z,100
2023-04-23T03:41:01.793Z,100
2023-04-23T03:42:01.820Z,100
2023-04-23T03:43:01.697Z,100
2023-04-23T03:44:01.802Z,100
2023-04-23T03:45:01.524Z,100
2023-04-23T03:46:02.484Z,100
2023-04-23T03:47:02.511Z,100
2023-04-23T03:48:02.381Z,100
2023-04-23T03:49:02.502Z,100
2023-04-23T03:50:02.339Z,100
2023-04-23T03:51:02.356Z,100
2023-04-23T03:52:02.277Z,100
2023-04-23T03:53:02.357Z,100
2023-04-23T03:54:02.220Z,100
2023-04-23T03:55:02.230Z,100
2023-04-23T03:56:02.162Z,100
2023-04-23T03:57:02.065Z,100
2023-04-23T03:58:02.101Z,100
2023-04-23T03:59:02.005Z,100
2023-04-23T04:00:01.961Z,100
2023-04-23T04:02:01.868Z,100
2023-04-23T04:03:01.912Z,100
2023-04-23T04:04:02.676Z,100
2023-04-23T04:05:02.503Z,100
2023-04-23T04:06:01.681Z,100
2023-04-23T04:07:01.704Z,100
2023-04-23T04:08:01.531Z,100
2023-04-23T04:09:01.528Z,100
2023-04-23T04:10:01.441Z,100
2023-04-23T04:11:02.472Z,100
2023-04-23T04:12:02.360Z,100
2023-04-23T04:13:02.532Z,100
2023-04-23T04:14:02.370Z,100
2023-04-23T04:15:02.489Z,100
2023-04-23T04:17:01.794Z,100
2023-04-23T04:18:01.835Z,100
2023-04-23T04:19:01.757Z,100
2023-04-23T04:20:01.623Z,100
2023-04-23T04:21:01.692Z,100
2023-04-23T04:22:01.524Z,100
2023-04-23T04:23:01.615Z,100
2023-04-23T04:24:02.539Z,100
2023-04-23T04:25:02.492Z,100
2023-04-23T04:26:02.570Z,100
2023-04-23T04:27:02.413Z,100
2023-04-23T04:28:02.439Z,100
2023-04-23T04:29:02.373Z,100
2023-04-23T04:30:02.538Z,100
2023-04-23T04:32:02.020Z,100
2023-04-23T04:33:01.859Z,100
2023-04-23T04:34:01.944Z,100
2023-04-23T04:35:01.806Z,100
2023-04-23T04:36:01.793Z,100
2023-04-23T04:37:01.676Z,100
2023-04-23T04:38:01.733Z,100
2023-04-23T04:39:01.547Z,100
2023-04-23T04:40:01.625Z,100
2023-04-23T04:41:01.432Z,100
2023-04-23T04:42:02.536Z,100
2023-04-23T04:43:02.508Z,100
2023-04-23T04:44:02.526Z,100
2023-04-23T04:45:02.418Z,100
2023-04-23T04:46:02.272Z,100
2023-04-23T04:47:02.495Z,100
2023-04-23T04:48:02.210Z,100
2023-04-23T04:49:02.268Z,100
2023-04-23T04:50:02.263Z,100
2023-04-23T04:51:02.112Z,100
2023-04-23T04:52:02.183Z,100
2023-04-23T04:53:02.021Z,100
2023-04-23T04:54:02.018Z,100
2023-04-23T04:55:02.098Z,100
2023-04-23T04:56:02.014Z,100
2023-04-23T04:57:01.905Z,100
2023-04-23T04:58:01.907Z,100
2023-04-23T04:59:01.802Z,100
2023-04-23T05:00:03.060Z,100
2023-04-23T05:02:01.649Z,100
2023-04-23T05:03:02.811Z,100
2023-04-23T05:04:02.372Z,100
2023-04-23T05:05:02.587Z,100
2023-04-23T05:06:02.421Z,100
2023-04-23T05:07:02.448Z,100
2023-04-23T05:08:02.514Z,100
2023-04-23T05:09:02.400Z,100
2023-04-23T05:10:02.311Z,100
2023-04-23T05:11:02.388Z,100
2023-04-23T05:12:02.347Z,100
2023-04-23T05:13:02.255Z,100
2023-04-23T05:14:02.254Z,100
2023-04-23T05:15:02.128Z,100
2023-04-23T05:16:02.158Z,100
2023-04-23T05:17:02.308Z,100
2023-04-23T05:18:02.305Z,100
2023-04-23T05:19:02.138Z,100
2023-04-23T05:20:02.248Z,100
2023-04-23T05:21:02.073Z,100
2023-04-23T05:22:02.150Z,100
2023-04-23T05:23:02.045Z,100
2023-04-23T05:24:02.357Z,100
2023-04-23T05:25:02.068Z,100
2023-04-23T05:26:01.958Z,100
2023-04-23T05:27:01.897Z,100
2023-04-23T05:28:02.010Z,100
2023-04-23T05:29:01.916Z,100
2023-04-23T05:30:01.842Z,100
2023-04-23T05:31:02.539Z,100
2023-04-23T05:32:02.415Z,100
2023-04-23T05:33:02.565Z,100
2023-04-23T05:34:02.438Z,100
2023-04-23T05:35:02.360Z,100
2023-04-23T05:36:02.244Z,100
2023-04-23T05:37:02.315Z,100
2023-04-23T05:38:02.141Z,100
2023-04-23T05:39:02.187Z,100
2023-04-23T05:40:02.182Z,100
2023-04-23T05:41:02.058Z,100
2023-04-23T05:42:02.111Z,100
2023-04-23T05:43:01.978Z,96
2023-04-23T05:44:01.920Z,90
2023-04-23T05:45:01.985Z,96
2023-04-23T05:47:01.758Z,87
2023-04-23T05:48:01.723Z,84
2023-04-23T05:49:01.587Z,86
2023-04-23T05:50:01.545Z,86
2023-04-23T05:51:01.721Z,88
2023-04-23T05:52:01.489Z,87
2023-04-23T05:53:01.561Z,81
2023-04-23T05:54:02.541Z,81
2023-04-23T05:55:02.344Z,81
2023-04-23T05:56:02.412Z,80
2023-04-23T05:57:02.294Z,82
2023-04-23T05:58:02.306Z,78
2023-04-23T05:59:02.206Z,77
2023-04-23T06:00:03.200Z,76
2023-04-23T06:02:01.987Z,77
2023-04-23T06:03:02.103Z,81
2023-04-23T06:04:02.465Z,76
2023-04-23T06:05:02.371Z,75
2023-04-23T06:06:02.618Z,74
2023-04-23T06:07:01.482Z,73
2023-04-23T06:08:01.523Z,73
2023-04-23T06:09:02.479Z,73
2023-04-23T06:10:02.347Z,73
2023-04-23T06:11:02.455Z,74
2023-04-23T06:12:02.317Z,73
2023-04-23T06:13:02.375Z,74
2023-04-23T06:14:02.219Z,72
2023-04-23T06:15:02.307Z,70
2023-04-23T06:17:02.057Z,70
2023-04-23T06:18:02.017Z,70
2023-04-23T06:19:01.964Z,70
2023-04-23T06:20:02.001Z,70
2023-04-23T06:21:01.815Z,70
2023-04-23T06:22:01.863Z,69
2023-04-23T06:23:01.738Z,69
2023-04-23T06:24:01.804Z,68
2023-04-23T06:25:01.724Z,67
2023-04-23T06:26:01.707Z,68
2023-04-23T06:27:01.552Z,67
2023-04-23T06:28:01.517Z,68
2023-04-23T06:29:02.496Z,67
2023-04-23T06:30:02.539Z,68
2023-04-23T06:31:02.370Z,67
2023-04-23T06:32:02.399Z,67
2023-04-23T06:33:02.368Z,67
2023-04-23T06:34:02.302Z,67
2023-04-23T06:35:02.941Z,66
2023-04-23T06:36:02.079Z,66
2023-04-23T06:37:02.166Z,66
2023-04-23T06:38:01.956Z,65
2023-04-23T06:39:01.915Z,65
2023-04-23T06:40:01.940Z,64
2023-04-23T06:41:01.878Z,65
2023-04-23T06:42:01.886Z,65
2023-04-23T06:43:01.740Z,64
2023-04-23T06:44:01.772Z,63
2023-04-23T06:45:03.679Z,62
2023-04-23T06:46:01.512Z,64
2023-04-23T06:47:01.676Z,62
2023-04-23T06:48:01.493Z,62
2023-04-23T06:49:02.465Z,62
2023-04-23T06:50:02.385Z,61
2023-04-23T06:51:02.501Z,62
2023-04-23T06:52:02.430Z,61
2023-04-23T06:53:02.467Z,61
2023-04-23T06:54:02.287Z,63
2023-04-23T06:55:02.350Z,61
2023-04-23T06:56:02.235Z,62
2023-04-23T06:57:02.221Z,60
2023-04-23T06:58:02.220Z,60
2023-04-23T06:59:02.193Z,60
2023-04-23T07:00:02.222Z,61
2023-04-23T07:02:01.942Z,60
2023-04-23T07:03:01.910Z,60
2023-04-23T07:04:02.005Z,59
2023-04-23T07:05:02.001Z,60
2023-04-23T07:06:01.944Z,58
2023-04-23T07:07:01.814Z,58
2023-04-23T07:08:01.870Z,58
2023-04-23T07:09:01.744Z,57
2023-04-23T07:10:01.819Z,57
2023-04-23T07:11:01.644Z,57
2023-04-23T07:12:01.747Z,57
2023-04-23T07:13:01.568Z,56
2023-04-23T07:14:01.618Z,56
2023-04-23T07:15:01.549Z,55
2023-04-23T07:16:02.330Z,57
2023-04-23T07:17:02.640Z,57
2023-04-23T07:18:02.494Z,56
2023-04-23T07:19:02.599Z,56
2023-04-23T07:20:02.717Z,56
2023-04-23T07:21:02.589Z,55
2023-04-23T07:22:02.379Z,56
2023-04-23T07:23:02.482Z,55
2023-04-23T07:24:02.354Z,55
2023-04-23T07:25:02.412Z,56
2023-04-23T07:26:02.350Z,55
2023-04-23T07:27:02.419Z,55
2023-04-23T07:28:02.326Z,55
2023-04-23T07:29:02.383Z,55
2023-04-23T07:30:02.435Z,56
2023-04-23T07:31:02.263Z,55
2023-04-23T07:32:02.377Z,54
2023-04-23T07:33:02.290Z,55
2023-04-23T07:34:02.240Z,55
2023-04-23T07:35:02.078Z,55
2023-04-23T07:36:02.010Z,54
2023-04-23T07:37:02.062Z,54
2023-04-23T07:38:01.975Z,54
2023-04-23T07:39:01.901Z,54
2023-04-23T07:40:01.945Z,54
2023-04-23T07:41:01.833Z,54
2023-04-23T07:42:04.041Z,53
2023-04-23T07:43:01.683Z,54
2023-04-23T07:44:01.782Z,54
2023-04-23T07:45:01.556Z,56
2023-04-23T07:46:02.418Z,54
2023-04-23T07:47:02.698Z,53
2023-04-23T07:48:02.617Z,55
2023-04-23T07:49:02.432Z,57
2023-04-23T07:50:02.320Z,55
2023-04-23T07:51:02.377Z,53
2023-04-23T07:52:02.388Z,54
2023-04-23T07:53:02.298Z,54
2023-04-23T07:54:02.187Z,54
2023-04-23T07:55:02.225Z,53
2023-04-23T07:56:02.217Z,53
2023-04-23T07:57:02.047Z,53
2023-04-23T07:58:02.172Z,53
2023-04-23T07:59:01.980Z,53
2023-04-23T08:00:01.925Z,52
2023-04-23T08:01:01.950Z,53
2023-04-23T08:02:01.991Z,53
2023-04-23T08:03:02.063Z,53
2023-04-23T08:04:02.384Z,53
2023-04-23T08:05:01.934Z,51
2023-04-23T08:06:01.739Z,51
2023-04-23T08:07:01.736Z,52
2023-04-23T08:08:01.593Z,52
2023-04-23T08:09:01.657Z,51
2023-04-23T08:10:01.496Z,51
2023-04-23T08:11:01.521Z,52
2023-04-23T08:12:02.510Z,51
2023-04-23T08:13:02.396Z,52
2023-04-23T08:14:02.491Z,51
2023-04-23T08:15:02.318Z,51
2023-04-23T08:17:02.020Z,50
2023-04-23T08:18:02.071Z,50
2023-04-23T08:19:06.660Z,51
2023-04-23T08:20:02.429Z,52
2023-04-23T08:21:02.510Z,50
2023-04-23T08:22:02.359Z,50
2023-04-23T08:23:02.398Z,50
2023-04-23T08:24:02.284Z,49
2023-04-23T08:25:02.334Z,49
2023-04-23T08:26:02.204Z,50
2023-04-23T08:27:02.222Z,50
2023-04-23T08:28:02.207Z,49
2023-04-23T08:29:02.120Z,49
2023-04-23T08:30:02.155Z,50
2023-04-23T08:31:19.108Z,48
2023-04-23T08:32:01.660Z,49
2023-04-23T08:33:01.650Z,49
2023-04-23T08:34:02.497Z,49
2023-04-23T08:35:02.390Z,49
2023-04-23T08:36:02.500Z,47
2023-04-23T08:37:02.326Z,48
2023-04-23T08:38:02.432Z,48
2023-04-23T08:39:02.300Z,49
2023-04-23T08:40:02.308Z,48
2023-04-23T08:41:02.258Z,48
2023-04-23T08:42:02.298Z,48
2023-04-23T08:43:02.209Z,48
2023-04-23T08:44:02.108Z,47
2023-04-23T08:45:02.168Z,47
2023-04-23T08:47:02.036Z,47
2023-04-23T08:48:03.084Z,46
2023-04-23T08:49:01.834Z,46
2023-04-23T08:50:01.894Z,46
2023-04-23T08:51:01.774Z,46
2023-04-23T08:52:01.803Z,46
2023-04-23T08:53:01.640Z,46
2023-04-23T08:54:01.649Z,45
2023-04-23T08:55:01.558Z,46
2023-04-23T08:56:01.624Z,45
2023-04-23T08:57:01.466Z,44
2023-04-23T08:58:02.494Z,44
2023-04-23T08:59:02.416Z,45
2023-04-23T09:00:02.507Z,51
2023-04-23T09:02:02.341Z,50
2023-04-23T09:03:02.685Z,45
2023-04-23T09:04:02.004Z,45
2023-04-23T09:05:01.909Z,44
2023-04-23T09:06:01.754Z,45
2023-04-23T09:07:01.846Z,45
2023-04-23T09:08:01.710Z,45
2023-04-23T09:09:01.715Z,44
2023-04-23T09:10:01.514Z,43
2023-04-23T09:11:01.638Z,44
2023-04-23T09:12:01.434Z,44
2023-04-23T09:13:02.487Z,42
2023-04-23T09:15:02.521Z,43
2023-04-23T09:16:02.407Z,44
2023-04-23T09:18:02.363Z,43
2023-04-23T09:19:02.244Z,42
2023-04-23T09:20:02.075Z,43
2023-04-23T09:21:02.131Z,42
2023-04-23T09:22:01.997Z,42
2023-04-23T09:23:01.944Z,43
2023-04-23T09:24:01.940Z,43
2023-04-23T09:25:01.955Z,43
2023-04-23T09:26:01.802Z,44
2023-04-23T09:27:01.846Z,42
2023-04-23T09:28:01.728Z,42
2023-04-23T09:29:01.818Z,42
2023-04-23T09:30:01.718Z,42
2023-04-23T09:31:01.795Z,43
2023-04-23T09:32:02.453Z,43
2023-04-23T09:33:02.312Z,42
2023-04-23T09:34:02.318Z,42
2023-04-23T09:35:02.174Z,42
2023-04-23T09:36:02.251Z,43
2023-04-23T09:37:02.106Z,42
2023-04-23T09:38:02.066Z,42
2023-04-23T09:39:02.148Z,42
2023-04-23T09:40:02.035Z,43
2023-04-23T09:41:01.912Z,42
2023-04-23T09:42:01.988Z,43
2023-04-23T09:43:01.803Z,42
2023-04-23T09:44:01.845Z,41
2023-04-23T09:45:01.744Z,41
2023-04-23T09:46:01.911Z,41
2023-04-23T09:47:01.979Z,41
2023-04-23T09:48:02.058Z,41
2023-04-23T09:49:02.037Z,42
2023-04-23T09:50:01.868Z,42
2023-04-23T09:51:01.920Z,42
2023-04-23T09:52:01.761Z,42
2023-04-23T09:53:01.842Z,41
2023-04-23T09:54:01.676Z,41
2023-04-23T09:55:01.692Z,42
2023-04-23T09:56:01.558Z,42
2023-04-23T09:57:01.580Z,42
2023-04-23T09:58:01.429Z,40
2023-04-23T09:59:02.508Z,42
2023-04-23T10:00:15.175Z,42
2023-04-23T10:01:02.435Z,42
2023-04-23T10:02:02.228Z,41
2023-04-23T10:03:02.392Z,40
2023-04-23T10:04:02.691Z,40
2023-04-23T10:05:24.062Z,40
2023-04-23T10:06:03.123Z,41
2023-04-23T10:08:02.311Z,41
2023-04-23T10:09:02.414Z,41
2023-04-23T10:10:02.333Z,42
2023-04-23T10:11:20.647Z,40
2023-04-23T10:12:01.814Z,41
2023-04-23T10:13:01.828Z,40
2023-04-23T10:14:01.698Z,41
2023-04-23T10:15:01.698Z,41
2023-04-23T10:16:22.101Z,41
2023-04-23T10:17:01.980Z,41
2023-04-23T10:18:02.052Z,41
2023-04-23T10:19:01.850Z,41
2023-04-23T10:20:01.970Z,41
2023-04-23T10:21:01.761Z,41
2023-04-23T10:22:19.754Z,40
2023-04-23T10:23:01.996Z,40
2023-04-23T10:24:01.928Z,40
2023-04-23T10:25:01.945Z,40
2023-04-23T10:26:01.753Z,40
2023-04-23T10:27:02.480Z,41
2023-04-23T10:28:02.202Z,40
2023-04-23T10:29:02.140Z,40
2023-04-23T10:30:06.105Z,41
2023-04-23T10:31:02.370Z,40
2023-04-23T10:33:01.953Z,39
2023-04-23T10:34:01.989Z,41
2023-04-23T10:35:02.132Z,41
2023-04-23T10:36:02.160Z,40
2023-04-23T10:37:02.082Z,40
2023-04-23T10:38:02.047Z,39
2023-04-23T10:39:02.379Z,40
2023-04-23T10:40:02.710Z,40
2023-04-23T10:41:01.713Z,41
2023-04-23T10:42:01.784Z,39
2023-04-23T10:43:01.609Z,40
2023-04-23T10:44:01.683Z,40
2023-04-23T10:45:23.025Z,39
2023-04-23T10:46:02.153Z,40
2023-04-23T10:47:02.552Z,41
2023-04-23T10:48:02.413Z,41
2023-04-23T10:49:02.338Z,41
2023-04-23T10:50:02.257Z,41
2023-04-23T10:52:14.366Z,41
2023-04-23T10:53:01.546Z,41
2023-04-23T10:54:01.599Z,40
2023-04-23T10:55:01.628Z,41
2023-04-23T10:56:01.570Z,41
2023-04-23T10:57:01.425Z,40
2023-04-23T10:58:03.537Z,40
2023-04-23T10:59:01.531Z,40
2023-04-23T11:00:01.806Z,41
2023-04-23T11:01:01.772Z,40
2023-04-23T11:02:02.278Z,40
2023-04-23T11:03:02.477Z,41
2023-04-23T11:04:02.676Z,40
2023-04-23T11:05:02.143Z,41
2023-04-23T11:06:02.281Z,42
2023-04-23T11:07:02.100Z,41
2023-04-23T11:08:19.157Z,41
2023-04-23T11:09:01.737Z,42
2023-04-23T11:10:01.760Z,41
2023-04-23T11:11:01.636Z,41
2023-04-23T11:12:01.810Z,41
2023-04-23T11:13:01.542Z,42
2023-04-23T11:14:01.602Z,40
2023-04-23T11:15:01.517Z,42
2023-04-23T11:16:01.630Z,39
2023-04-23T11:17:02.365Z,39
2023-04-23T11:18:02.379Z,39
2023-04-23T11:19:02.361Z,40
2023-04-23T11:20:02.208Z,40
2023-04-23T11:21:02.277Z,40
2023-04-23T11:22:02.597Z,39
2023-04-23T11:23:01.546Z,39
2023-04-23T11:24:01.529Z,39
2023-04-23T11:25:02.490Z,39
2023-04-23T11:26:02.366Z,41
2023-04-23T11:27:02.418Z,39
2023-04-23T11:28:02.334Z,39
2023-04-23T11:29:02.345Z,40
2023-04-23T11:30:02.260Z,39
2023-04-23T11:31:02.273Z,39
2023-04-23T11:32:04.307Z,39
2023-04-23T11:33:02.713Z,39
2023-04-23T11:34:01.838Z,39
2023-04-23T11:35:01.646Z,39
2023-04-23T11:36:01.725Z,39
2023-04-23T11:37:01.585Z,40
2023-04-23T11:38:01.625Z,40
2023-04-23T11:39:01.522Z,39
2023-04-23T11:40:01.492Z,39
2023-04-23T11:41:02.488Z,38
2023-04-23T11:42:02.360Z,39
2023-04-23T11:43:02.428Z,39
2023-04-23T11:44:02.282Z,39
2023-04-23T11:45:02.391Z,40
2023-04-23T11:46:02.279Z,40
2023-04-23T11:48:02.029Z,40
2023-04-23T11:49:01.822Z,41
2023-04-23T11:50:01.895Z,41
2023-04-23T11:51:01.772Z,40
2023-04-23T11:52:01.779Z,40
2023-04-23T11:53:01.642Z,40
2023-04-23T11:54:01.640Z,40
2023-04-23T11:55:01.471Z,40
2023-04-23T11:56:01.544Z,40
2023-04-23T11:57:02.486Z,40
2023-04-23T11:58:02.461Z,40
2023-04-23T11:59:02.510Z,41
2023-04-23T12:00:02.416Z,41
2023-04-23T12:01:02.485Z,41
2023-04-23T12:03:02.214Z,42
2023-04-23T12:04:02.842Z,42
2023-04-23T12:05:01.836Z,42
2023-04-23T12:06:01.807Z,42
2023-04-23T12:07:15.947Z,42
2023-04-23T12:08:02.172Z,42
2023-04-23T12:09:02.191Z,41
2023-04-23T12:10:02.060Z,40
2023-04-23T12:11:02.005Z,40
2023-04-23T12:12:02.021Z,40
2023-04-23T12:13:01.862Z,40
2023-04-23T12:14:01.886Z,41
2023-04-23T12:15:01.744Z,41
2023-04-23T12:16:01.864Z,41
2023-04-23T12:18:01.736Z,40
2023-04-23T12:19:01.484Z,40
2023-04-23T12:20:02.548Z,41
2023-04-23T12:21:01.426Z,41
2023-04-23T12:22:02.524Z,41
2023-04-23T12:23:02.355Z,41
2023-04-23T12:24:02.401Z,41
2023-04-23T12:25:02.317Z,42
2023-04-23T12:26:02.367Z,41
2023-04-23T12:27:02.312Z,41
2023-04-23T12:28:02.477Z,40
2023-04-23T12:29:02.392Z,40
2023-04-23T12:30:06.572Z,40
2023-04-23T12:31:02.089Z,41
2023-04-23T12:32:02.343Z,40
2023-04-23T12:33:02.486Z,40
2023-04-23T12:34:02.341Z,39
2023-04-23T12:35:02.387Z,39
2023-04-23T12:36:02.257Z,38
2023-04-23T12:37:02.303Z,39
2023-04-23T12:38:02.157Z,39
2023-04-23T12:39:02.202Z,38
2023-04-23T12:40:02.068Z,38
2023-04-23T12:41:02.155Z,39
2023-04-23T12:42:02.047Z,39
2023-04-23T12:43:01.974Z,38
2023-04-23T12:44:01.903Z,39
2023-04-23T12:45:01.938Z,38
2023-04-23T12:46:01.789Z,38
2023-04-23T12:47:02.437Z,38
2023-04-23T12:48:02.454Z,38
2023-04-23T12:49:02.211Z,39
2023-04-23T12:50:02.338Z,39
2023-04-23T12:51:02.253Z,39
2023-04-23T12:52:02.153Z,39
2023-04-23T12:53:02.195Z,39
2023-04-23T12:54:02.072Z,39
2023-04-23T12:55:02.020Z,39
2023-04-23T12:56:02.021Z,38
2023-04-23T12:57:01.918Z,39
2023-04-23T12:58:01.986Z,38
2023-04-23T12:59:01.838Z,38
2023-04-23T13:00:02.588Z,37
2023-04-23T13:01:01.521Z,38
2023-04-23T13:02:02.064Z,37
2023-04-23T13:03:02.217Z,36
2023-04-23T13:04:02.037Z,37
2023-04-23T13:05:01.915Z,37
2023-04-23T13:06:01.970Z,37
2023-04-23T13:07:01.810Z,37
2023-04-23T13:08:01.865Z,37
2023-04-23T13:09:01.700Z,37
2023-04-23T13:10:01.736Z,37
2023-04-23T13:11:01.626Z,37
2023-04-23T13:12:01.609Z,38
2023-04-23T13:13:01.501Z,39
2023-04-23T13:14:01.533Z,39
2023-04-23T13:15:02.534Z,39
2023-04-23T13:16:02.519Z,39
2023-04-23T13:17:02.485Z,39
2023-04-23T13:18:02.474Z,39
2023-04-23T13:19:02.315Z,39
2023-04-23T13:20:02.470Z,39
2023-04-23T13:21:02.243Z,39
2023-04-23T13:22:02.296Z,38
2023-04-23T13:23:02.271Z,38
2023-04-23T13:24:02.074Z,38
2023-04-23T13:25:02.119Z,38
2023-04-23T13:26:01.969Z,39
2023-04-23T13:27:01.955Z,38
2023-04-23T13:28:02.000Z,37
2023-04-23T13:29:01.863Z,38
2023-04-23T13:30:01.915Z,39
2023-04-23T13:31:01.753Z,39
2023-04-23T13:32:01.837Z,38
2023-04-23T13:33:01.812Z,37
2023-04-23T13:34:01.622Z,36
2023-04-23T13:35:01.586Z,36
2023-04-23T13:36:02.532Z,36
2023-04-23T13:37:02.410Z,37
2023-04-23T13:38:02.445Z,36
2023-04-23T13:39:02.490Z,36
2023-04-23T13:40:02.408Z,36
2023-04-23T13:41:02.312Z,36
2023-04-23T13:42:10.379Z,36
2023-04-23T13:43:02.115Z,36
2023-04-23T13:44:02.167Z,38
2023-04-23T13:45:02.018Z,37
2023-04-23T13:46:02.015Z,37
2023-04-23T13:47:02.047Z,36
2023-04-23T13:48:01.982Z,36
2023-04-23T13:49:01.866Z,38
2023-04-23T13:50:01.910Z,37
2023-04-23T13:51:01.798Z,38
2023-04-23T13:52:01.805Z,37
2023-04-23T13:53:01.653Z,37
2023-04-23T13:54:01.701Z,37
2023-04-23T13:55:01.581Z,38
2023-04-23T13:56:01.630Z,37
2023-04-23T13:57:01.530Z,38
2023-04-23T13:58:01.507Z,37
2023-04-23T13:59:20.293Z,38
2023-04-23T14:00:02.795Z,38
2023-04-23T14:02:02.089Z,39
2023-04-23T14:03:02.142Z,39
2023-04-23T14:04:02.095Z,39
2023-04-23T14:05:02.116Z,38
2023-04-23T14:06:02.018Z,39
2023-04-23T14:07:01.994Z,39
2023-04-23T14:08:02.030Z,39
2023-04-23T14:09:01.907Z,40
2023-04-23T14:10:01.977Z,40
2023-04-23T14:11:01.786Z,40
2023-04-23T14:12:01.836Z,40
2023-04-23T14:13:01.695Z,39
2023-04-23T14:14:01.787Z,39
2023-04-23T14:15:01.561Z,39
2023-04-23T14:16:03.970Z,39
2023-04-23T14:17:01.818Z,40
2023-04-23T14:18:01.805Z,40
2023-04-23T14:19:01.729Z,40
2023-04-23T14:20:01.557Z,39
2023-04-23T14:21:01.571Z,39
2023-04-23T14:22:02.626Z,40
2023-04-23T14:23:02.397Z,39
2023-04-23T14:24:02.504Z,38
2023-04-23T14:25:02.447Z,39
2023-04-23T14:26:02.431Z,39
2023-04-23T14:27:05.647Z,39
2023-04-23T14:28:01.586Z,38
2023-04-23T14:29:01.609Z,38
2023-04-23T14:30:01.491Z,39
2023-04-23T14:31:02.221Z,38
2023-04-23T14:32:02.258Z,39
2023-04-23T14:33:02.297Z,38
2023-04-23T14:34:02.075Z,39
2023-04-23T14:35:02.140Z,38
2023-04-23T14:36:02.022Z,38